sensor_id;sensor_type;location;lat;lon;timestamp;P1;durP1;ratioP1;P2;durP2;ratioP2
53646;SDS011;39550;52.230;5.194;2023-01-31T00:00:09;12.23;;;4.65;;
53646;SDS011;39550;52.230;5.194;2023-01-31T00:02:35;13.15;;;4.47;;
53646;SDS011;39550;52.230;5.194;2023-01-31T00:05:00;11.02;;;4.72;;
53646;SDS011;39550;52.230;5.194;2023-01-31T00:07:26;10.05;;;4.55;;
53646;SDS011;39550;52.230;5.194;2023-01-31T00:09:53;12.63;;;5.20;;
53646;SDS011;39550;52.230;5.194;2023-01-31T00:12:18;11.02;;;4.30;;
53646;SDS011;39550;52.230;5.194;2023-01-31T00:14:43;12.88;;;4.35;;
53646;SDS011;39550;52.230;5.194;2023-01-31T00:17:09;10.88;;;4.97;;
53646;SDS011;39550;52.230;5.194;2023-01-31T00:19:34;13.02;;;4.93;;
53646;SDS011;39550;52.230;5.194;2023-01-31T00:21:59;11.85;;;4.82;;
53646;SDS011;39550;52.230;5.194;2023-01-31T00:24:25;13.80;;;4.72;;
53646;SDS011;39550;52.230;5.194;2023-01-31T00:26:50;9.80;;;4.57;;
53646;SDS011;39550;52.230;5.194;2023-01-31T00:29:24;10.98;;;3.70;;
53646;SDS011;39550;52.230;5.194;2023-01-31T00:31:50;9.20;;;4.73;;
53646;SDS011;39550;52.230;5.194;2023-01-31T00:34:15;14.82;;;5.30;;
53646;SDS011;39550;52.230;5.194;2023-01-31T00:36:41;9.52;;;4.20;;
53646;SDS011;39550;52.230;5.194;2023-01-31T00:39:07;12.45;;;4.80;;
53646;SDS011;39550;52.230;5.194;2023-01-31T00:41:34;11.73;;;4.97;;
53646;SDS011;39550;52.230;5.194;2023-01-31T00:44:01;10.55;;;4.43;;
53646;SDS011;39550;52.230;5.194;2023-01-31T00:46:26;9.23;;;3.83;;
53646;SDS011;39550;52.230;5.194;2023-01-31T00:48:54;11.73;;;4.38;;
53646;SDS011;39550;52.230;5.194;2023-01-31T00:51:23;10.57;;;4.22;;
53646;SDS011;39550;52.230;5.194;2023-01-31T00:53:50;11.43;;;5.15;;
53646;SDS011;39550;52.230;5.194;2023-01-31T00:56:20;10.52;;;4.05;;
53646;SDS011;39550;52.230;5.194;2023-01-31T00:58:47;11.27;;;4.20;;
53646;SDS011;39550;52.230;5.194;2023-01-31T01:01:23;9.45;;;4.55;;
53646;SDS011;39550;52.230;5.194;2023-01-31T01:03:51;11.13;;;4.45;;
53646;SDS011;39550;52.230;5.194;2023-01-31T01:06:17;7.10;;;3.75;;
53646;SDS011;39550;52.230;5.194;2023-01-31T01:08:44;6.50;;;3.88;;
53646;SDS011;39550;52.230;5.194;2023-01-31T01:11:23;9.57;;;4.03;;
53646;SDS011;39550;52.230;5.194;2023-01-31T01:13:54;9.48;;;4.10;;
53646;SDS011;39550;52.230;5.194;2023-01-31T01:16:24;10.68;;;3.95;;
53646;SDS011;39550;52.230;5.194;2023-01-31T01:18:52;10.45;;;4.30;;
53646;SDS011;39550;52.230;5.194;2023-01-31T01:21:23;10.10;;;4.18;;
53646;SDS011;39550;52.230;5.194;2023-01-31T01:23:51;12.57;;;4.57;;
53646;SDS011;39550;52.230;5.194;2023-01-31T01:26:20;9.80;;;3.92;;
53646;SDS011;39550;52.230;5.194;2023-01-31T01:28:48;11.30;;;3.85;;
53646;SDS011;39550;52.230;5.194;2023-01-31T01:31:15;7.38;;;3.45;;
53646;SDS011;39550;52.230;5.194;2023-01-31T01:33:42;8.60;;;3.85;;
53646;SDS011;39550;52.230;5.194;2023-01-31T01:36:09;8.57;;;3.58;;
53646;SDS011;39550;52.230;5.194;2023-01-31T01:38:41;7.63;;;3.67;;
53646;SDS011;39550;52.230;5.194;2023-01-31T01:41:08;11.15;;;4.18;;
53646;SDS011;39550;52.230;5.194;2023-01-31T01:43:45;9.25;;;3.53;;
53646;SDS011;39550;52.230;5.194;2023-01-31T01:46:12;10.05;;;3.65;;
53646;SDS011;39550;52.230;5.194;2023-01-31T01:48:51;9.77;;;4.07;;
53646;SDS011;39550;52.230;5.194;2023-01-31T01:51:24;11.85;;;3.67;;
53646;SDS011;39550;52.230;5.194;2023-01-31T01:53:52;7.97;;;3.65;;
53646;SDS011;39550;52.230;5.194;2023-01-31T01:56:27;10.48;;;3.88;;
53646;SDS011;39550;52.230;5.194;2023-01-31T01:59:32;7.95;;;3.42;;
53646;SDS011;39550;52.230;5.194;2023-01-31T02:01:55;8.80;;;3.70;;
53646;SDS011;39550;52.230;5.194;2023-01-31T02:04:22;8.18;;;3.97;;
53646;SDS011;39550;52.230;5.194;2023-01-31T02:06:52;10.05;;;3.88;;
53646;SDS011;39550;52.230;5.194;2023-01-31T02:09:20;9.25;;;3.85;;
53646;SDS011;39550;52.230;5.194;2023-01-31T02:11:52;10.35;;;3.63;;
53646;SDS011;39550;52.230;5.194;2023-01-31T02:14:18;7.45;;;4.22;;
53646;SDS011;39550;52.230;5.194;2023-01-31T02:16:44;7.65;;;3.55;;
53646;SDS011;39550;52.230;5.194;2023-01-31T02:19:21;8.23;;;3.92;;
53646;SDS011;39550;52.230;5.194;2023-01-31T02:38:36;10.18;;;3.83;;
53646;SDS011;39550;52.230;5.194;2023-01-31T02:41:06;9.00;;;3.97;;
53646;SDS011;39550;52.230;5.194;2023-01-31T02:43:42;11.23;;;4.03;;
53646;SDS011;39550;52.230;5.194;2023-01-31T02:49:26;8.45;;;3.20;;
53646;SDS011;39550;52.230;5.194;2023-01-31T02:55:05;9.05;;;3.95;;
53646;SDS011;39550;52.230;5.194;2023-01-31T02:57:50;11.60;;;3.53;;
53646;SDS011;39550;52.230;5.194;2023-01-31T03:00:17;12.13;;;4.00;;
53646;SDS011;39550;52.230;5.194;2023-01-31T03:02:45;9.65;;;3.90;;
53646;SDS011;39550;52.230;5.194;2023-01-31T03:05:14;10.18;;;4.00;;
53646;SDS011;39550;52.230;5.194;2023-01-31T03:07:40;11.07;;;3.30;;
53646;SDS011;39550;52.230;5.194;2023-01-31T03:18:54;12.27;;;4.07;;
53646;SDS011;39550;52.230;5.194;2023-01-31T03:21:31;9.38;;;3.60;;
53646;SDS011;39550;52.230;5.194;2023-01-31T03:24:04;10.80;;;4.15;;
53646;SDS011;39550;52.230;5.194;2023-01-31T03:26:31;9.98;;;3.80;;
53646;SDS011;39550;52.230;5.194;2023-01-31T03:28:59;8.35;;;3.97;;
53646;SDS011;39550;52.230;5.194;2023-01-31T03:31:32;9.27;;;3.65;;
53646;SDS011;39550;52.230;5.194;2023-01-31T03:34:03;10.25;;;4.10;;
53646;SDS011;39550;52.230;5.194;2023-01-31T03:39:45;10.90;;;4.32;;
53646;SDS011;39550;52.230;5.194;2023-01-31T03:42:49;10.52;;;4.80;;
53646;SDS011;39550;52.230;5.194;2023-01-31T03:48:10;10.73;;;4.18;;
53646;SDS011;39550;52.230;5.194;2023-01-31T03:50:43;11.32;;;3.92;;
53646;SDS011;39550;52.230;5.194;2023-01-31T03:53:33;9.18;;;3.72;;
53646;SDS011;39550;52.230;5.194;2023-01-31T03:56:07;7.47;;;3.55;;
53646;SDS011;39550;52.230;5.194;2023-01-31T03:58:38;11.95;;;3.65;;
53646;SDS011;39550;52.230;5.194;2023-01-31T04:01:07;9.43;;;4.20;;
53646;SDS011;39550;52.230;5.194;2023-01-31T04:03:37;11.60;;;4.70;;
53646;SDS011;39550;52.230;5.194;2023-01-31T04:06:06;15.50;;;4.60;;
53646;SDS011;39550;52.230;5.194;2023-01-31T04:08:33;11.70;;;4.25;;
53646;SDS011;39550;52.230;5.194;2023-01-31T04:10:59;9.82;;;4.38;;
53646;SDS011;39550;52.230;5.194;2023-01-31T04:13:29;13.35;;;4.50;;
53646;SDS011;39550;52.230;5.194;2023-01-31T04:15:55;10.25;;;4.15;;
53646;SDS011;39550;52.230;5.194;2023-01-31T04:18:21;8.95;;;3.90;;
53646;SDS011;39550;52.230;5.194;2023-01-31T04:20:46;13.15;;;4.28;;
53646;SDS011;39550;52.230;5.194;2023-01-31T04:23:12;10.13;;;4.13;;
53646;SDS011;39550;52.230;5.194;2023-01-31T04:25:37;9.05;;;4.18;;
53646;SDS011;39550;52.230;5.194;2023-01-31T04:28:03;11.77;;;4.75;;
53646;SDS011;39550;52.230;5.194;2023-01-31T04:30:28;10.27;;;4.53;;
53646;SDS011;39550;52.230;5.194;2023-01-31T04:32:53;13.40;;;4.25;;
53646;SDS011;39550;52.230;5.194;2023-01-31T04:35:19;12.95;;;5.25;;
53646;SDS011;39550;52.230;5.194;2023-01-31T04:37:44;10.18;;;4.50;;
53646;SDS011;39550;52.230;5.194;2023-01-31T04:40:10;12.55;;;4.18;;
53646;SDS011;39550;52.230;5.194;2023-01-31T04:42:38;11.93;;;4.80;;
53646;SDS011;39550;52.230;5.194;2023-01-31T04:45:03;11.13;;;4.57;;
53646;SDS011;39550;52.230;5.194;2023-01-31T04:47:29;13.52;;;4.80;;
53646;SDS011;39550;52.230;5.194;2023-01-31T04:49:54;11.18;;;4.40;;
53646;SDS011;39550;52.230;5.194;2023-01-31T04:52:19;13.98;;;5.00;;
53646;SDS011;39550;52.230;5.194;2023-01-31T04:54:45;13.30;;;4.38;;
53646;SDS011;39550;52.230;5.194;2023-01-31T04:57:10;11.73;;;4.43;;
53646;SDS011;39550;52.230;5.194;2023-01-31T04:59:35;11.55;;;4.60;;
53646;SDS011;39550;52.230;5.194;2023-01-31T05:02:01;13.10;;;4.90;;
53646;SDS011;39550;52.230;5.194;2023-01-31T05:04:26;10.32;;;4.68;;
53646;SDS011;39550;52.230;5.194;2023-01-31T05:06:52;13.93;;;5.13;;
53646;SDS011;39550;52.230;5.194;2023-01-31T05:09:17;11.18;;;4.70;;
53646;SDS011;39550;52.230;5.194;2023-01-31T05:11:42;13.95;;;5.22;;
53646;SDS011;39550;52.230;5.194;2023-01-31T05:14:08;15.95;;;5.70;;
53646;SDS011;39550;52.230;5.194;2023-01-31T05:16:33;12.73;;;5.85;;
53646;SDS011;39550;52.230;5.194;2023-01-31T05:18:59;13.00;;;5.15;;
53646;SDS011;39550;52.230;5.194;2023-01-31T05:21:25;14.05;;;5.45;;
53646;SDS011;39550;52.230;5.194;2023-01-31T05:23:50;10.93;;;5.03;;
53646;SDS011;39550;52.230;5.194;2023-01-31T05:26:16;10.02;;;4.72;;
53646;SDS011;39550;52.230;5.194;2023-01-31T05:28:41;15.00;;;5.07;;
53646;SDS011;39550;52.230;5.194;2023-01-31T05:31:07;10.88;;;5.13;;
53646;SDS011;39550;52.230;5.194;2023-01-31T05:33:33;9.55;;;5.00;;
53646;SDS011;39550;52.230;5.194;2023-01-31T05:35:59;10.20;;;6.13;;
53646;SDS011;39550;52.230;5.194;2023-01-31T05:38:24;14.70;;;5.22;;
53646;SDS011;39550;52.230;5.194;2023-01-31T05:40:49;19.40;;;5.35;;
53646;SDS011;39550;52.230;5.194;2023-01-31T05:43:15;11.85;;;5.35;;
53646;SDS011;39550;52.230;5.194;2023-01-31T05:45:40;16.38;;;5.80;;
53646;SDS011;39550;52.230;5.194;2023-01-31T05:48:06;13.95;;;5.90;;
53646;SDS011;39550;52.230;5.194;2023-01-31T05:50:31;10.63;;;5.13;;
53646;SDS011;39550;52.230;5.194;2023-01-31T05:52:57;12.18;;;4.88;;
53646;SDS011;39550;52.230;5.194;2023-01-31T05:55:29;15.10;;;5.90;;
53646;SDS011;39550;52.230;5.194;2023-01-31T05:57:54;10.77;;;5.45;;
53646;SDS011;39550;52.230;5.194;2023-01-31T06:00:21;12.73;;;5.35;;
53646;SDS011;39550;52.230;5.194;2023-01-31T06:02:47;13.90;;;5.30;;
53646;SDS011;39550;52.230;5.194;2023-01-31T06:05:13;15.15;;;5.32;;
53646;SDS011;39550;52.230;5.194;2023-01-31T06:07:39;19.30;;;6.28;;
53646;SDS011;39550;52.230;5.194;2023-01-31T06:10:05;10.88;;;4.82;;
53646;SDS011;39550;52.230;5.194;2023-01-31T06:12:33;16.67;;;6.20;;
53646;SDS011;39550;52.230;5.194;2023-01-31T06:14:59;11.90;;;5.45;;
53646;SDS011;39550;52.230;5.194;2023-01-31T06:17:24;13.63;;;5.90;;
53646;SDS011;39550;52.230;5.194;2023-01-31T06:19:51;11.00;;;5.32;;
53646;SDS011;39550;52.230;5.194;2023-01-31T06:22:18;14.57;;;6.47;;
53646;SDS011;39550;52.230;5.194;2023-01-31T06:24:43;16.33;;;5.68;;
53646;SDS011;39550;52.230;5.194;2023-01-31T06:27:09;13.13;;;5.97;;
53646;SDS011;39550;52.230;5.194;2023-01-31T06:29:34;11.15;;;5.65;;
53646;SDS011;39550;52.230;5.194;2023-01-31T06:32:00;12.63;;;5.63;;
53646;SDS011;39550;52.230;5.194;2023-01-31T06:34:25;10.65;;;5.22;;
53646;SDS011;39550;52.230;5.194;2023-01-31T06:36:51;13.27;;;6.82;;
53646;SDS011;39550;52.230;5.194;2023-01-31T06:39:16;12.00;;;6.40;;
53646;SDS011;39550;52.230;5.194;2023-01-31T06:41:41;12.07;;;5.22;;
53646;SDS011;39550;52.230;5.194;2023-01-31T06:44:06;16.95;;;6.72;;
53646;SDS011;39550;52.230;5.194;2023-01-31T06:46:32;18.02;;;6.53;;
53646;SDS011;39550;52.230;5.194;2023-01-31T06:48:57;13.80;;;5.95;;
53646;SDS011;39550;52.230;5.194;2023-01-31T06:51:23;14.95;;;6.25;;
53646;SDS011;39550;52.230;5.194;2023-01-31T06:53:48;14.10;;;6.38;;
53646;SDS011;39550;52.230;5.194;2023-01-31T06:56:17;15.38;;;6.38;;
53646;SDS011;39550;52.230;5.194;2023-01-31T06:58:42;14.85;;;5.93;;
53646;SDS011;39550;52.230;5.194;2023-01-31T07:01:09;13.88;;;5.55;;
53646;SDS011;39550;52.230;5.194;2023-01-31T07:03:37;10.10;;;4.45;;
53646;SDS011;39550;52.230;5.194;2023-01-31T07:06:03;16.13;;;6.20;;
53646;SDS011;39550;52.230;5.194;2023-01-31T07:08:30;10.40;;;5.43;;
53646;SDS011;39550;52.230;5.194;2023-01-31T07:10:58;12.10;;;6.15;;
53646;SDS011;39550;52.230;5.194;2023-01-31T07:13:25;17.60;;;5.85;;
53646;SDS011;39550;52.230;5.194;2023-01-31T07:15:52;13.80;;;6.80;;
53646;SDS011;39550;52.230;5.194;2023-01-31T07:18:18;13.13;;;5.82;;
53646;SDS011;39550;52.230;5.194;2023-01-31T07:20:43;17.35;;;6.00;;
53646;SDS011;39550;52.230;5.194;2023-01-31T07:23:08;16.23;;;6.93;;
53646;SDS011;39550;52.230;5.194;2023-01-31T07:25:34;15.75;;;6.18;;
53646;SDS011;39550;52.230;5.194;2023-01-31T07:28:00;16.80;;;6.30;;
53646;SDS011;39550;52.230;5.194;2023-01-31T07:30:26;19.23;;;6.03;;
53646;SDS011;39550;52.230;5.194;2023-01-31T07:32:52;15.80;;;6.38;;
53646;SDS011;39550;52.230;5.194;2023-01-31T07:35:17;15.63;;;5.80;;
53646;SDS011;39550;52.230;5.194;2023-01-31T07:37:43;16.92;;;5.85;;
53646;SDS011;39550;52.230;5.194;2023-01-31T07:40:10;21.10;;;6.07;;
53646;SDS011;39550;52.230;5.194;2023-01-31T07:42:36;16.05;;;5.53;;
53646;SDS011;39550;52.230;5.194;2023-01-31T07:45:02;15.52;;;5.82;;
53646;SDS011;39550;52.230;5.194;2023-01-31T07:47:27;18.38;;;5.95;;
53646;SDS011;39550;52.230;5.194;2023-01-31T07:49:53;16.60;;;5.30;;
53646;SDS011;39550;52.230;5.194;2023-01-31T07:52:18;19.23;;;6.35;;
53646;SDS011;39550;52.230;5.194;2023-01-31T07:54:43;13.18;;;5.35;;
53646;SDS011;39550;52.230;5.194;2023-01-31T07:57:08;18.42;;;6.13;;
53646;SDS011;39550;52.230;5.194;2023-01-31T07:59:34;16.83;;;5.43;;
53646;SDS011;39550;52.230;5.194;2023-01-31T08:01:59;12.40;;;4.93;;
53646;SDS011;39550;52.230;5.194;2023-01-31T08:04:43;15.45;;;5.55;;
53646;SDS011;39550;52.230;5.194;2023-01-31T08:07:08;15.30;;;5.38;;
53646;SDS011;39550;52.230;5.194;2023-01-31T08:09:34;12.90;;;5.13;;
53646;SDS011;39550;52.230;5.194;2023-01-31T08:12:00;11.60;;;5.72;;
53646;SDS011;39550;52.230;5.194;2023-01-31T08:14:25;16.58;;;6.25;;
53646;SDS011;39550;52.230;5.194;2023-01-31T08:16:52;13.60;;;5.25;;
53646;SDS011;39550;52.230;5.194;2023-01-31T08:19:18;10.75;;;4.60;;
53646;SDS011;39550;52.230;5.194;2023-01-31T08:21:44;11.35;;;4.70;;
53646;SDS011;39550;52.230;5.194;2023-01-31T08:24:09;16.70;;;5.47;;
53646;SDS011;39550;52.230;5.194;2023-01-31T08:26:35;13.45;;;5.10;;
53646;SDS011;39550;52.230;5.194;2023-01-31T08:29:00;13.15;;;5.00;;
53646;SDS011;39550;52.230;5.194;2023-01-31T08:31:26;12.15;;;4.97;;
53646;SDS011;39550;52.230;5.194;2023-01-31T08:33:52;13.00;;;4.57;;
53646;SDS011;39550;52.230;5.194;2023-01-31T08:36:19;12.18;;;4.50;;
53646;SDS011;39550;52.230;5.194;2023-01-31T08:38:45;12.48;;;4.70;;
53646;SDS011;39550;52.230;5.194;2023-01-31T08:41:11;10.05;;;4.43;;
53646;SDS011;39550;52.230;5.194;2023-01-31T08:43:37;15.35;;;5.47;;
53646;SDS011;39550;52.230;5.194;2023-01-31T08:46:02;13.63;;;4.90;;
53646;SDS011;39550;52.230;5.194;2023-01-31T08:48:31;12.35;;;4.10;;
53646;SDS011;39550;52.230;5.194;2023-01-31T08:50:59;11.48;;;5.13;;
53646;SDS011;39550;52.230;5.194;2023-01-31T08:53:28;12.63;;;4.57;;
53646;SDS011;39550;52.230;5.194;2023-01-31T08:55:57;9.90;;;4.60;;
53646;SDS011;39550;52.230;5.194;2023-01-31T08:58:25;10.00;;;4.63;;
53646;SDS011;39550;52.230;5.194;2023-01-31T09:00:51;9.95;;;3.80;;
53646;SDS011;39550;52.230;5.194;2023-01-31T09:03:16;11.75;;;4.75;;
53646;SDS011;39550;52.230;5.194;2023-01-31T09:05:42;11.90;;;4.05;;
53646;SDS011;39550;52.230;5.194;2023-01-31T09:08:07;15.07;;;4.78;;
53646;SDS011;39550;52.230;5.194;2023-01-31T09:10:32;12.65;;;4.22;;
53646;SDS011;39550;52.230;5.194;2023-01-31T09:12:58;10.63;;;4.22;;
53646;SDS011;39550;52.230;5.194;2023-01-31T09:15:24;13.82;;;4.35;;
53646;SDS011;39550;52.230;5.194;2023-01-31T09:17:50;16.58;;;4.93;;
53646;SDS011;39550;52.230;5.194;2023-01-31T09:20:16;11.07;;;4.10;;
53646;SDS011;39550;52.230;5.194;2023-01-31T09:22:42;16.45;;;4.13;;
53646;SDS011;39550;52.230;5.194;2023-01-31T09:25:07;12.90;;;4.82;;
53646;SDS011;39550;52.230;5.194;2023-01-31T09:27:34;11.88;;;4.07;;
53646;SDS011;39550;52.230;5.194;2023-01-31T09:30:00;11.77;;;4.10;;
53646;SDS011;39550;52.230;5.194;2023-01-31T09:32:26;10.95;;;4.72;;
53646;SDS011;39550;52.230;5.194;2023-01-31T09:34:51;10.13;;;4.05;;
53646;SDS011;39550;52.230;5.194;2023-01-31T09:37:17;11.63;;;3.92;;
53646;SDS011;39550;52.230;5.194;2023-01-31T09:39:42;11.85;;;4.00;;
53646;SDS011;39550;52.230;5.194;2023-01-31T09:42:21;9.65;;;3.80;;
53646;SDS011;39550;52.230;5.194;2023-01-31T09:44:59;9.25;;;3.85;;
53646;SDS011;39550;52.230;5.194;2023-01-31T09:47:30;10.57;;;4.47;;
53646;SDS011;39550;52.230;5.194;2023-01-31T09:50:03;10.10;;;3.75;;
53646;SDS011;39550;52.230;5.194;2023-01-31T09:52:31;10.80;;;4.00;;
53646;SDS011;39550;52.230;5.194;2023-01-31T09:54:58;10.45;;;3.58;;
53646;SDS011;39550;52.230;5.194;2023-01-31T09:58:07;9.60;;;3.83;;
53646;SDS011;39550;52.230;5.194;2023-01-31T10:00:42;9.93;;;4.47;;
53646;SDS011;39550;52.230;5.194;2023-01-31T10:05:57;10.73;;;4.53;;
53646;SDS011;39550;52.230;5.194;2023-01-31T10:08:49;13.10;;;3.80;;
53646;SDS011;39550;52.230;5.194;2023-01-31T10:11:23;8.20;;;3.50;;
53646;SDS011;39550;52.230;5.194;2023-01-31T10:13:52;10.63;;;4.13;;
53646;SDS011;39550;52.230;5.194;2023-01-31T10:16:32;10.77;;;4.03;;
53646;SDS011;39550;52.230;5.194;2023-01-31T10:19:03;9.77;;;4.43;;
53646;SDS011;39550;52.230;5.194;2023-01-31T10:21:50;12.68;;;4.50;;
53646;SDS011;39550;52.230;5.194;2023-01-31T10:24:21;12.52;;;4.40;;
53646;SDS011;39550;52.230;5.194;2023-01-31T10:26:54;10.90;;;4.40;;
53646;SDS011;39550;52.230;5.194;2023-01-31T10:29:30;12.35;;;3.90;;
53646;SDS011;39550;52.230;5.194;2023-01-31T10:32:04;13.05;;;4.20;;
53646;SDS011;39550;52.230;5.194;2023-01-31T10:34:55;9.73;;;4.13;;
53646;SDS011;39550;52.230;5.194;2023-01-31T10:37:35;13.73;;;4.13;;
53646;SDS011;39550;52.230;5.194;2023-01-31T10:40:11;11.25;;;4.57;;
53646;SDS011;39550;52.230;5.194;2023-01-31T10:42:39;8.18;;;3.88;;
53646;SDS011;39550;52.230;5.194;2023-01-31T10:47:54;11.75;;;3.92;;
53646;SDS011;39550;52.230;5.194;2023-01-31T10:50:30;14.32;;;4.57;;
53646;SDS011;39550;52.230;5.194;2023-01-31T10:53:22;10.43;;;3.60;;
53646;SDS011;39550;52.230;5.194;2023-01-31T10:58:24;10.18;;;4.30;;
53646;SDS011;39550;52.230;5.194;2023-01-31T11:00:52;13.05;;;4.78;;
53646;SDS011;39550;52.230;5.194;2023-01-31T11:03:17;8.45;;;4.28;;
53646;SDS011;39550;52.230;5.194;2023-01-31T11:05:50;11.40;;;4.45;;
53646;SDS011;39550;52.230;5.194;2023-01-31T11:08:28;9.82;;;4.10;;
53646;SDS011;39550;52.230;5.194;2023-01-31T11:11:09;15.43;;;4.63;;
53646;SDS011;39550;52.230;5.194;2023-01-31T11:14:26;11.35;;;4.40;;
53646;SDS011;39550;52.230;5.194;2023-01-31T11:16:41;12.18;;;4.78;;
53646;SDS011;39550;52.230;5.194;2023-01-31T11:19:15;12.50;;;4.00;;
53646;SDS011;39550;52.230;5.194;2023-01-31T11:21:48;11.95;;;4.95;;
53646;SDS011;39550;52.230;5.194;2023-01-31T11:24:31;13.82;;;4.30;;
53646;SDS011;39550;52.230;5.194;2023-01-31T11:27:01;15.25;;;4.90;;
53646;SDS011;39550;52.230;5.194;2023-01-31T11:29:39;12.07;;;4.18;;
53646;SDS011;39550;52.230;5.194;2023-01-31T11:32:17;14.50;;;4.63;;
53646;SDS011;39550;52.230;5.194;2023-01-31T11:37:54;11.00;;;4.07;;
53646;SDS011;39550;52.230;5.194;2023-01-31T11:40:46;13.02;;;4.53;;
53646;SDS011;39550;52.230;5.194;2023-01-31T11:45:44;13.18;;;4.75;;
53646;SDS011;39550;52.230;5.194;2023-01-31T11:48:23;13.05;;;4.60;;
53646;SDS011;39550;52.230;5.194;2023-01-31T11:50:55;13.35;;;4.75;;
53646;SDS011;39550;52.230;5.194;2023-01-31T11:53:28;12.05;;;5.03;;
53646;SDS011;39550;52.230;5.194;2023-01-31T11:55:58;13.75;;;4.60;;
53646;SDS011;39550;52.230;5.194;2023-01-31T11:58:36;11.88;;;4.07;;
53646;SDS011;39550;52.230;5.194;2023-01-31T12:01:07;10.85;;;4.13;;
53646;SDS011;39550;52.230;5.194;2023-01-31T12:03:48;12.63;;;4.47;;
53646;SDS011;39550;52.230;5.194;2023-01-31T12:06:34;11.93;;;4.10;;
53646;SDS011;39550;52.230;5.194;2023-01-31T12:09:02;9.48;;;4.50;;
53646;SDS011;39550;52.230;5.194;2023-01-31T12:11:31;14.40;;;5.35;;
53646;SDS011;39550;52.230;5.194;2023-01-31T12:16:31;13.05;;;5.22;;
53646;SDS011;39550;52.230;5.194;2023-01-31T12:24:32;11.77;;;4.60;;
53646;SDS011;39550;52.230;5.194;2023-01-31T12:55:42;16.77;;;5.27;;
53646;SDS011;39550;52.230;5.194;2023-01-31T12:58:37;13.35;;;4.75;;
53646;SDS011;39550;52.230;5.194;2023-01-31T13:01:06;17.48;;;5.45;;
53646;SDS011;39550;52.230;5.194;2023-01-31T13:06:49;11.30;;;4.45;;
53646;SDS011;39550;52.230;5.194;2023-01-31T13:09:23;10.07;;;4.20;;
53646;SDS011;39550;52.230;5.194;2023-01-31T13:12:05;14.98;;;5.00;;
53646;SDS011;39550;52.230;5.194;2023-01-31T13:14:41;13.13;;;4.90;;
53646;SDS011;39550;52.230;5.194;2023-01-31T13:17:11;14.13;;;5.95;;
53646;SDS011;39550;52.230;5.194;2023-01-31T13:25:02;14.98;;;5.43;;
53646;SDS011;39550;52.230;5.194;2023-01-31T13:27:42;13.10;;;5.20;;
53646;SDS011;39550;52.230;5.194;2023-01-31T13:35:49;37.20;;;9.38;;
53646;SDS011;39550;52.230;5.194;2023-01-31T13:38:24;29.30;;;7.40;;
53646;SDS011;39550;52.230;5.194;2023-01-31T13:40:57;41.25;;;9.82;;
53646;SDS011;39550;52.230;5.194;2023-01-31T13:43:22;52.22;;;11.30;;
53646;SDS011;39550;52.230;5.194;2023-01-31T13:45:51;36.03;;;9.63;;
53646;SDS011;39550;52.230;5.194;2023-01-31T13:48:36;33.30;;;8.35;;
53646;SDS011;39550;52.230;5.194;2023-01-31T13:51:32;31.27;;;8.55;;
53646;SDS011;39550;52.230;5.194;2023-01-31T13:56:44;30.20;;;7.90;;
53646;SDS011;39550;52.230;5.194;2023-01-31T13:59:21;18.45;;;6.18;;
53646;SDS011;39550;52.230;5.194;2023-01-31T14:01:50;15.35;;;5.68;;
53646;SDS011;39550;52.230;5.194;2023-01-31T14:04:21;18.08;;;5.60;;
53646;SDS011;39550;52.230;5.194;2023-01-31T14:09:29;18.73;;;5.82;;
53646;SDS011;39550;52.230;5.194;2023-01-31T14:14:36;15.38;;;6.30;;
53646;SDS011;39550;52.230;5.194;2023-01-31T14:32:32;14.57;;;5.57;;
53646;SDS011;39550;52.230;5.194;2023-01-31T14:35:04;15.65;;;4.78;;
53646;SDS011;39550;52.230;5.194;2023-01-31T14:37:45;13.93;;;5.00;;
53646;SDS011;39550;52.230;5.194;2023-01-31T14:43:29;10.35;;;4.57;;
53646;SDS011;39550;52.230;5.194;2023-01-31T14:57:39;12.48;;;5.03;;
53646;SDS011;39550;52.230;5.194;2023-01-31T15:02:46;13.73;;;5.70;;
53646;SDS011;39550;52.230;5.194;2023-01-31T15:05:15;11.82;;;4.43;;
53646;SDS011;39550;52.230;5.194;2023-01-31T15:07:56;13.73;;;5.40;;
53646;SDS011;39550;52.230;5.194;2023-01-31T15:13:36;11.02;;;4.68;;
53646;SDS011;39550;52.230;5.194;2023-01-31T15:16:17;16.75;;;5.25;;
53646;SDS011;39550;52.230;5.194;2023-01-31T15:18:58;11.27;;;4.75;;
53646;SDS011;39550;52.230;5.194;2023-01-31T15:21:26;12.60;;;4.82;;
53646;SDS011;39550;52.230;5.194;2023-01-31T15:23:58;14.50;;;5.75;;
53646;SDS011;39550;52.230;5.194;2023-01-31T15:26:26;12.10;;;5.07;;
53646;SDS011;39550;52.230;5.194;2023-01-31T15:28:54;9.88;;;4.57;;
53646;SDS011;39550;52.230;5.194;2023-01-31T15:31:23;12.98;;;4.75;;
53646;SDS011;39550;52.230;5.194;2023-01-31T15:33:56;14.63;;;4.78;;
53646;SDS011;39550;52.230;5.194;2023-01-31T15:36:37;13.93;;;5.20;;
53646;SDS011;39550;52.230;5.194;2023-01-31T15:39:29;13.68;;;5.05;;
53646;SDS011;39550;52.230;5.194;2023-01-31T15:42:00;15.68;;;5.65;;
53646;SDS011;39550;52.230;5.194;2023-01-31T15:44:45;12.65;;;4.68;;
53646;SDS011;39550;52.230;5.194;2023-01-31T15:47:20;10.85;;;5.28;;
53646;SDS011;39550;52.230;5.194;2023-01-31T15:49:47;15.23;;;5.30;;
53646;SDS011;39550;52.230;5.194;2023-01-31T15:52:14;11.50;;;4.63;;
53646;SDS011;39550;52.230;5.194;2023-01-31T15:54:54;12.77;;;5.45;;
53646;SDS011;39550;52.230;5.194;2023-01-31T15:57:59;11.55;;;5.07;;
53646;SDS011;39550;52.230;5.194;2023-01-31T16:00:34;12.15;;;5.88;;
53646;SDS011;39550;52.230;5.194;2023-01-31T16:03:01;11.18;;;5.13;;
53646;SDS011;39550;52.230;5.194;2023-01-31T16:05:30;10.48;;;4.85;;
53646;SDS011;39550;52.230;5.194;2023-01-31T16:08:03;12.82;;;4.90;;
53646;SDS011;39550;52.230;5.194;2023-01-31T16:10:33;13.68;;;5.38;;
53646;SDS011;39550;52.230;5.194;2023-01-31T16:13:00;12.45;;;5.15;;
53646;SDS011;39550;52.230;5.194;2023-01-31T16:15:27;15.40;;;5.03;;
53646;SDS011;39550;52.230;5.194;2023-01-31T16:17:57;14.52;;;5.65;;
53646;SDS011;39550;52.230;5.194;2023-01-31T16:20:33;19.65;;;6.35;;
53646;SDS011;39550;52.230;5.194;2023-01-31T16:23:04;16.88;;;5.22;;
53646;SDS011;39550;52.230;5.194;2023-01-31T16:25:55;12.98;;;5.43;;
53646;SDS011;39550;52.230;5.194;2023-01-31T16:28:25;12.57;;;5.28;;
53646;SDS011;39550;52.230;5.194;2023-01-31T16:33:53;14.77;;;4.78;;
53646;SDS011;39550;52.230;5.194;2023-01-31T16:39:39;18.75;;;5.18;;
53646;SDS011;39550;52.230;5.194;2023-01-31T16:42:29;14.75;;;5.53;;
53646;SDS011;39550;52.230;5.194;2023-01-31T16:44:59;15.32;;;5.45;;
53646;SDS011;39550;52.230;5.194;2023-01-31T16:53:27;10.85;;;5.20;;
53646;SDS011;39550;52.230;5.194;2023-01-31T16:56:30;14.55;;;4.88;;
53646;SDS011;39550;52.230;5.194;2023-01-31T16:58:56;13.13;;;5.00;;
53646;SDS011;39550;52.230;5.194;2023-01-31T17:01:24;13.27;;;5.60;;
53646;SDS011;39550;52.230;5.194;2023-01-31T17:06:32;13.45;;;4.82;;
53646;SDS011;39550;52.230;5.194;2023-01-31T17:08:58;14.70;;;5.45;;
53646;SDS011;39550;52.230;5.194;2023-01-31T17:11:24;22.40;;;5.78;;
53646;SDS011;39550;52.230;5.194;2023-01-31T17:13:50;15.30;;;5.53;;
53646;SDS011;39550;52.230;5.194;2023-01-31T17:18:42;14.45;;;5.88;;
53646;SDS011;39550;52.230;5.194;2023-01-31T17:21:08;16.52;;;5.22;;
53646;SDS011;39550;52.230;5.194;2023-01-31T17:23:34;12.50;;;5.03;;
53646;SDS011;39550;52.230;5.194;2023-01-31T17:25:59;11.93;;;5.07;;
53646;SDS011;39550;52.230;5.194;2023-01-31T17:28:25;14.73;;;4.68;;
53646;SDS011;39550;52.230;5.194;2023-01-31T17:30:50;11.88;;;4.95;;
53646;SDS011;39550;52.230;5.194;2023-01-31T17:33:15;12.63;;;4.68;;
53646;SDS011;39550;52.230;5.194;2023-01-31T17:35:42;11.63;;;5.53;;